Time;durP1;ratioP1;P1;durP2;ratioP2;P2;SDS_P1;SDS_P2;PMS_P1;PMS_P2;Temp;Humidity;BMP_temperature;BMP_pressure;BME280_temperature;BME280_humidity;BME280_pressure;Samples;Min_cycle;Max_cycle;Signal;HPM_P1;HPM_P2
2022/01/18 00:00:29;;;;;;;30.80;8.77;;;;;;;4.78;85.11;102696.25;5045301;28;20233;-75
2022/01/18 00:02:57;;;;;;;27.53;6.60;;;;;;;4.80;85.03;102701.50;5049816;28;20229;-74
2022/01/18 00:05:24;;;;;;;29.00;6.77;;;;;;;4.81;85.29;102695.34;5032348;28;20230;-75
2022/01/18 00:07:50;;;;;;;29.53;7.33;;;;;;;4.83;85.14;102698.84;5029458;28;20212;-75
2022/01/18 00:10:17;;;;;;;23.13;4.37;;;;;;;4.84;84.94;102697.94;5037163;28;20205;-74
2022/01/18 00:12:56;;;;;;;15.77;3.77;;;;;;;4.85;85.24;102699.69;5036947;28;20252;-75
2022/01/18 00:15:41;;;;;;;14.77;3.50;;;;;;;4.86;85.18;102710.25;5038472;28;20506;-74
2022/01/18 00:18:11;;;;;;;19.97;4.40;;;;;;;4.88;85.21;102705.84;5040821;28;20241;-74
2022/01/18 00:20:57;;;;;;;18.17;3.77;;;;;;;4.89;84.88;102709.34;5029513;28;20714;-75
2022/01/18 00:23:24;;;;;;;13.90;4.47;;;;;;;4.92;84.90;102711.09;5031078;28;20255;-73
2022/01/18 00:25:54;;;;;;;18.77;4.67;;;;;;;4.92;85.00;102700.53;5045300;28;20229;-72
2022/01/18 00:28:21;;;;;;;17.20;4.50;;;;;;;4.92;85.20;102690.84;5033207;28;20304;-72
2022/01/18 00:31:26;;;;;;;12.30;3.40;;;;;;;4.93;85.10;102692.59;5033540;28;20218;-72
2022/01/18 00:33:59;;;;;;;15.23;3.13;;;;;;;4.95;84.94;102711.09;5048795;28;20274;-72
2022/01/18 00:36:29;;;;;;;13.20;3.03;;;;;;;4.95;85.17;102713.72;5057807;28;20202;-72
2022/01/18 00:38:57;;;;;;;20.27;3.47;;;;;;;4.95;85.26;102719.88;5046380;28;20209;-72
2022/01/18 00:41:26;;;;;;;13.67;2.87;;;;;;;4.96;84.85;102718.13;5037139;28;20699;-72
2022/01/18 00:43:55;;;;;;;18.17;3.20;;;;;;;4.96;85.26;102726.03;5043657;28;20230;-72
2022/01/18 00:46:23;;;;;;;18.27;3.47;;;;;;;4.97;85.23;102728.66;5034363;28;20237;-73
2022/01/18 00:48:52;;;;;;;19.50;3.20;;;;;;;4.98;85.28;102730.44;5035612;28;20216;-72
2022/01/18 00:51:19;;;;;;;15.63;3.63;;;;;;;4.98;85.32;102725.16;5052894;28;20205;-72
2022/01/18 00:53:47;;;;;;;11.17;2.83;;;;;;;4.98;85.31;102735.72;5033571;28;20233;-71
2022/01/18 00:56:24;;;;;;;18.77;2.97;;;;;;;4.99;85.52;102726.03;5046369;28;20206;-72
2022/01/18 00:58:51;;;;;;;13.50;2.73;;;;;;;4.98;85.59;102741.00;5051507;28;20213;-72
2022/01/18 01:01:20;;;;;;;15.47;3.20;;;;;;;4.98;85.58;102742.75;5040401;28;20210;-71
2022/01/18 01:03:48;;;;;;;14.87;3.40;;;;;;;4.97;85.93;102735.72;5044540;28;20237;-72
2022/01/18 01:06:15;;;;;;;11.77;2.33;;;;;;;4.97;85.78;102736.59;5038171;28;20609;-73
2022/01/18 01:08:42;;;;;;;9.80;2.73;;;;;;;4.99;86.04;102733.94;5053866;28;20197;-71
2022/01/18 01:11:10;;;;;;;21.20;3.13;;;;;;;5.00;86.12;102733.06;5038450;28;20224;-72
2022/01/18 01:13:42;;;;;;;14.43;2.87;;;;;;;5.01;86.37;102737.44;5037449;28;20251;-72
2022/01/18 01:16:23;;;;;;;14.87;2.93;;;;;;;5.02;86.49;102731.25;5042110;28;20289;-72
2022/01/18 01:19:07;;;;;;;19.23;2.87;;;;;;;5.01;86.49;102735.69;5049193;28;20342;-72
2022/01/18 01:33:10;;;;;;;10.40;2.80;;;;;;;4.98;87.98;102755.97;5052170;28;20232;-73
2022/01/18 01:35:48;;;;;;;11.70;2.80;;;;;;;4.97;88.07;102749.78;5051877;28;20593;-72
2022/01/18 01:44:01;;;;;;;19.20;3.57;;;;;;;4.97;88.63;102746.28;5052511;28;20240;-73
2022/01/18 01:46:29;;;;;;;9.43;3.30;;;;;;;4.96;89.23;102755.09;5045859;28;20286;-72
2022/01/18 01:48:57;;;;;;;15.43;3.47;;;;;;;4.95;89.25;102748.94;5044682;28;20308;-74
2022/01/18 01:51:29;;;;;;;11.20;2.93;;;;;;;4.97;89.38;102749.78;5047275;28;20210;-72
2022/01/18 01:53:56;;;;;;;11.37;3.83;;;;;;;4.98;89.76;102756.84;5040936;28;20317;-73
2022/01/18 01:56:23;;;;;;;11.73;3.00;;;;;;;4.99;89.61;102750.66;5049972;28;20694;-72
2022/01/18 01:58:49;;;;;;;15.97;3.43;;;;;;;4.99;90.15;102745.38;5048886;28;20300;-72
2022/01/18 02:01:16;;;;;;;9.80;2.83;;;;;;;4.99;90.23;102741.88;5041435;28;20671;-72
2022/01/18 02:03:43;;;;;;;10.67;3.47;;;;;;;5.01;90.31;102748.00;5048537;28;20748;-73
2022/01/18 02:06:10;;;;;;;11.77;2.90;;;;;;;5.00;90.69;102749.78;5034337;28;20230;-73
2022/01/18 02:08:37;;;;;;;14.27;3.40;;;;;;;5.00;90.77;102741.84;5041629;28;20370;-72
2022/01/18 02:11:04;;;;;;;11.93;3.13;;;;;;;5.00;90.83;102740.97;5041792;28;20213;-72
2022/01/18 02:13:32;;;;;;;10.60;2.37;;;;;;;5.00;91.08;102746.25;5034699;28;20236;-74
2022/01/18 02:24:13;;;;;;;9.67;2.37;;;;;;;4.96;91.00;102749.81;5041191;28;20233;-74
2022/01/18 02:26:40;;;;;;;10.70;2.53;;;;;;;4.96;91.51;102749.81;5031445;28;20233;-74
2022/01/18 02:29:09;;;;;;;9.37;2.20;;;;;;;4.94;91.36;102747.16;5031827;28;20206;-74
2022/01/18 02:31:36;;;;;;;13.20;2.53;;;;;;;4.96;91.63;102753.31;5041954;28;20211;-73
2022/01/18 02:34:03;;;;;;;10.53;2.30;;;;;;;4.94;91.40;102747.16;5045318;28;20228;-73
2022/01/18 02:36:32;;;;;;;11.47;2.10;;;;;;;4.94;91.51;102754.22;5048611;28;20205;-72
2022/01/18 02:39:00;;;;;;;10.63;2.40;;;;;;;4.94;91.56;102749.81;5042725;28;20214;-73
2022/01/18 02:41:30;;;;;;;8.27;2.70;;;;;;;4.94;91.61;102754.22;5032140;28;20213;-72
2022/01/18 02:43:58;;;;;;;13.67;1.97;;;;;;;4.93;91.52;102758.63;5032937;28;20545;-71
2022/01/18 02:46:24;;;;;;;7.50;2.00;;;;;;;4.93;91.73;102757.75;5051638;28;20229;-72
2022/01/18 02:48:51;;;;;;;8.40;2.10;;;;;;;4.92;91.55;102758.63;5030014;28;20217;-73
2022/01/18 02:51:17;;;;;;;9.13;2.50;;;;;;;4.92;91.30;102758.63;5034529;28;20214;-72
2022/01/18 02:54:01;;;;;;;10.87;2.50;;;;;;;4.92;91.46;102761.25;5036659;28;20229;-72
2022/01/18 02:56:30;;;;;;;14.03;2.20;;;;;;;4.91;91.51;102759.50;5036764;28;20210;-72
2022/01/18 02:59:06;;;;;;;8.73;2.30;;;;;;;4.90;91.52;102756.00;5038810;28;20205;-74
2022/01/18 03:04:17;;;;;;;11.80;2.27;;;;;;;4.91;91.26;102756.88;5046554;28;20338;-75
2022/01/18 03:06:43;;;;;;;10.87;2.47;;;;;;;4.91;91.36;102754.22;5049881;28;20229;-75
2022/01/18 03:09:11;;;;;;;13.77;3.10;;;;;;;4.92;91.50;102753.34;5046233;28;20244;-75
2022/01/18 03:11:38;;;;;;;11.00;2.40;;;;;;;4.89;91.75;102749.84;5049611;28;20205;-75
2022/01/18 03:14:05;;;;;;;12.40;2.83;;;;;;;4.91;91.39;102751.59;5044838;28;20230;-75
2022/01/18 03:16:31;;;;;;;10.93;2.40;;;;;;;4.92;91.90;102753.34;5037831;28;20667;-75
2022/01/18 03:18:58;;;;;;;12.23;2.73;;;;;;;4.92;91.69;102746.31;5036844;28;20214;-75
2022/01/18 03:21:24;;;;;;;7.40;2.30;;;;;;;4.92;91.69;102755.97;5038578;28;20202;-75
2022/01/18 03:23:54;;;;;;;10.13;2.23;;;;;;;4.92;91.85;102748.94;5050532;28;20233;-75
2022/01/18 03:26:31;;;;;;;10.23;2.43;;;;;;;4.94;92.10;102759.50;5040214;28;20229;-74
2022/01/18 03:28:57;;;;;;;11.23;2.33;;;;;;;4.94;91.97;102756.84;5051245;28;20255;-75
2022/01/18 03:31:23;;;;;;;7.83;1.90;;;;;;;4.94;92.00;102767.41;5046568;28;20209;-74
2022/01/18 03:33:50;;;;;;;13.17;2.30;;;;;;;4.93;92.04;102757.75;5049425;28;20218;-74
2022/01/18 03:36:30;;;;;;;9.53;2.27;;;;;;;4.94;92.12;102754.22;5050990;28;20206;-75
2022/01/18 03:38:57;;;;;;;7.00;2.00;;;;;;;4.94;92.22;102751.56;5049792;28;20209;-74
2022/01/18 03:41:25;;;;;;;11.73;2.80;;;;;;;4.96;92.09;102760.38;5031383;28;20214;-74
2022/01/18 03:43:53;;;;;;;8.50;2.40;;;;;;;4.96;92.50;102770.94;5048449;28;20226;-75
2022/01/18 03:46:19;;;;;;;6.60;1.60;;;;;;;4.95;92.43;102758.59;5039988;28;20233;-73
2022/01/18 03:48:50;;;;;;;6.40;1.73;;;;;;;4.95;92.43;102769.16;5037439;28;20217;-75
2022/01/18 03:51:17;;;;;;;9.27;2.03;;;;;;;4.96;92.62;102758.59;5040251;28;20637;-74
2022/01/18 03:53:43;;;;;;;11.53;2.13;;;;;;;4.97;92.70;102764.75;5047958;28;20718;-75
2022/01/18 03:56:10;;;;;;;14.27;2.43;;;;;;;4.98;92.66;102774.44;5032206;28;20206;-75
2022/01/18 03:58:38;;;;;;;9.23;2.13;;;;;;;4.97;92.92;102770.91;5031255;28;20221;-75
2022/01/18 04:01:05;;;;;;;9.97;2.40;;;;;;;4.98;93.12;102774.44;5046244;28;20218;-74
2022/01/18 04:03:31;;;;;;;7.53;1.67;;;;;;;4.98;93.16;102771.81;5050458;28;20750;-75
2022/01/18 04:05:58;;;;;;;6.93;1.83;;;;;;;4.99;93.14;102770.91;5036675;28;20214;-75
2022/01/18 04:08:25;;;;;;;9.20;1.70;;;;;;;4.98;93.26;102785.00;5040678;28;20220;-75
2022/01/18 04:10:52;;;;;;;10.17;2.13;;;;;;;4.98;93.49;102777.06;5044387;28;21565;-75
2022/01/18 04:13:19;;;;;;;8.37;2.13;;;;;;;4.98;93.13;102771.81;5042941;28;20256;-75
2022/01/18 04:15:47;;;;;;;9.30;2.13;;;;;;;4.99;93.00;102778.84;5030492;28;20673;-75
2022/01/18 04:18:23;;;;;;;10.00;2.67;;;;;;;5.00;93.54;102775.31;5042925;28;20210;-75
2022/01/18 04:29:06;;;;;;;6.53;2.70;;;;;;;5.00;93.82;102786.75;5038080;28;20381;-75
2022/01/18 04:31:34;;;;;;;5.90;2.60;;;;;;;5.01;93.88;102798.19;5043035;28;20296;-74
2022/01/18 04:34:01;;;;;;;7.87;2.40;;;;;;;5.01;93.86;102796.44;5051704;28;20702;-74
2022/01/18 04:36:28;;;;;;;9.27;2.90;;;;;;;5.02;93.77;102790.22;5050071;28;20210;-74
2022/01/18 04:38:55;;;;;;;9.70;2.83;;;;;;;5.02;93.93;102790.22;5049977;28;20221;-75
2022/01/18 04:41:26;;;;;;;7.87;2.50;;;;;;;5.03;94.09;102791.97;5049859;28;20205;-74
2022/01/18 04:44:09;;;;;;;12.47;2.80;;;;;;;5.04;93.99;102795.50;5042275;28;20233;-75
2022/01/18 04:49:20;;;;;;;5.23;2.83;;;;;;;5.04;94.13;102791.09;5029929;28;20348;-75
2022/01/18 04:51:47;;;;;;;6.57;2.70;;;;;;;5.05;94.25;102782.28;5049015;28;20208;-74
2022/01/18 04:54:15;;;;;;;4.67;2.00;;;;;;;5.04;94.08;102783.19;5043743;28;20221;-75
2022/01/18 04:59:26;;;;;;;4.63;2.30;;;;;;;5.04;94.22;102785.81;5046511;28;20340;-75
2022/01/18 05:01:55;;;;;;;7.13;2.43;;;;;;;5.05;94.47;102787.56;5044309;28;20213;-75
2022/01/18 05:04:21;;;;;;;6.90;2.57;;;;;;;5.05;94.54;102787.56;5043390;28;20730;-75
2022/01/18 05:06:48;;;;;;;7.83;2.80;;;;;;;5.06;94.84;102793.72;5041797;28;20236;-75
2022/01/18 05:09:15;;;;;;;5.60;2.43;;;;;;;5.05;94.62;102786.69;5043198;28;20201;-75
2022/01/18 05:11:50;;;;;;;5.30;2.57;;;;;;;5.06;94.88;102796.38;5047564;28;20556;-75
2022/01/18 05:14:26;;;;;;;7.60;2.80;;;;;;;5.06;94.57;102799.00;5044871;28;20300;-73
2022/01/18 05:17:01;;;;;;;7.37;2.67;;;;;;;5.04;94.40;102800.78;5047058;28;20201;-74
2022/01/18 05:19:40;;;;;;;9.93;3.30;;;;;;;5.04;94.71;102806.06;5045945;28;20216;-75
2022/01/18 05:24:51;;;;;;;6.47;3.20;;;;;;;5.01;94.76;102803.47;5044680;28;20214;-75
2022/01/18 05:27:17;;;;;;;7.80;3.20;;;;;;;5.01;94.99;102819.31;5050512;28;20237;-75
2022/01/18 05:29:44;;;;;;;7.13;3.17;;;;;;;5.02;94.89;102816.63;5041543;28;20248;-75
2022/01/18 05:32:11;;;;;;;8.47;3.40;;;;;;;5.03;95.10;102820.16;5047695;28;20212;-75
2022/01/18 05:34:38;;;;;;;10.03;3.60;;;;;;;5.02;95.02;102814.00;5045449;28;20446;-74
2022/01/18 05:37:05;;;;;;;8.67;3.60;;;;;;;5.03;95.22;102814.88;5049509;28;20221;-75
2022/01/18 05:39:32;;;;;;;6.80;3.40;;;;;;;5.03;95.24;102810.47;5059234;28;20670;-75
2022/01/18 05:41:58;;;;;;;8.30;4.13;;;;;;;5.04;95.15;102817.50;5048283;28;20201;-75
2022/01/18 05:44:25;;;;;;;7.97;2.77;;;;;;;5.05;95.20;102824.53;5049975;28;20213;-75
2022/01/18 05:46:51;;;;;;;11.30;3.37;;;;;;;5.06;95.23;102833.34;5047972;28;20221;-74
2022/01/18 05:49:19;;;;;;;7.93;2.90;;;;;;;5.06;95.50;102836.00;5047422;28;20224;-75
2022/01/18 05:51:47;;;;;;;6.23;3.43;;;;;;;5.06;95.42;102841.28;5052628;28;20532;-75
2022/01/18 05:54:13;;;;;;;5.73;2.60;;;;;;;5.06;95.43;102842.16;5049823;28;20229;-75
2022/01/18 05:56:40;;;;;;;6.03;3.63;;;;;;;5.06;95.32;102836.88;5053252;28;20360;-74
2022/01/18 05:59:09;;;;;;;6.40;3.33;;;;;;;5.05;95.35;102845.69;5052376;28;20292;-75
2022/01/18 06:01:45;;;;;;;5.97;3.00;;;;;;;5.06;95.56;102843.91;5048906;28;20285;-75
2022/01/18 06:04:19;;;;;;;7.90;2.80;;;;;;;5.06;95.50;102851.84;5042412;28;20626;-74
2022/01/18 06:06:54;;;;;;;8.30;3.03;;;;;;;5.05;95.56;102848.31;5048612;28;20225;-74
2022/01/18 06:09:22;;;;;;;5.13;2.90;;;;;;;5.05;95.46;102852.72;5042811;28;20288;-75
2022/01/18 06:11:48;;;;;;;6.60;3.40;;;;;;;5.05;95.53;102855.38;5044735;28;20208;-75
2022/01/18 06:14:15;;;;;;;7.33;3.53;;;;;;;5.06;95.56;102854.47;5038870;28;20225;-74
2022/01/18 06:16:42;;;;;;;9.17;4.13;;;;;;;5.06;95.32;102857.13;5053507;28;20662;-76
2022/01/18 06:19:09;;;;;;;10.47;3.43;;;;;;;5.06;95.47;102859.75;5046788;28;20206;-75
2022/01/18 06:21:35;;;;;;;6.57;3.37;;;;;;;5.06;95.54;102871.19;5036094;28;20212;-75
2022/01/18 06:24:04;;;;;;;7.90;3.80;;;;;;;5.05;95.68;102866.81;5044074;28;20603;-75
2022/01/18 06:26:31;;;;;;;5.40;3.57;;;;;;;5.06;95.71;102872.97;5048543;28;20663;-75
2022/01/18 06:28:58;;;;;;;11.37;3.93;;;;;;;5.06;95.77;102865.03;5042794;28;20212;-74
2022/01/18 06:31:24;;;;;;;10.20;3.80;;;;;;;5.07;95.85;102869.44;5044051;28;20671;-74
2022/01/18 06:33:51;;;;;;;9.67;4.27;;;;;;;5.09;95.48;102870.31;5046099;28;20241;-75
2022/01/18 06:36:18;;;;;;;7.80;3.97;;;;;;;5.09;95.93;102868.56;5047747;28;20218;-74
2022/01/18 06:38:45;;;;;;;8.87;3.73;;;;;;;5.10;95.79;102866.78;5043705;28;20211;-75
2022/01/18 06:41:13;;;;;;;9.17;4.83;;;;;;;5.10;95.78;102875.59;5044834;28;20203;-75
2022/01/18 06:43:39;;;;;;;12.77;5.30;;;;;;;5.12;95.87;102875.59;5045547;28;20226;-74
2022/01/18 06:46:06;;;;;;;13.97;5.37;;;;;;;5.13;96.03;102879.97;5044317;28;20206;-74
2022/01/18 06:48:33;;;;;;;10.63;4.80;;;;;;;5.13;95.99;102880.88;5038553;28;20221;-75
2022/01/18 06:51:00;;;;;;;10.57;4.90;;;;;;;5.13;95.82;102888.78;5042545;28;20198;-74
2022/01/18 06:53:31;;;;;;;11.37;4.87;;;;;;;5.13;95.86;102891.44;5044914;28;20249;-74
2022/01/18 06:55:58;;;;;;;8.90;5.07;;;;;;;5.13;95.99;102891.44;5044445;28;20214;-75
2022/01/18 06:58:26;;;;;;;15.60;5.30;;;;;;;5.15;95.86;102899.34;5043800;28;20194;-75
2022/01/18 07:00:52;;;;;;;8.43;4.90;;;;;;;5.15;95.57;102896.72;5050520;28;20202;-73
2022/01/18 07:03:20;;;;;;;10.00;4.73;;;;;;;5.14;96.21;102898.47;5046345;28;20235;-74
2022/01/18 07:05:46;;;;;;;10.67;5.63;;;;;;;5.15;95.96;102899.34;5040634;28;20204;-75
2022/01/18 07:08:13;;;;;;;10.77;5.13;;;;;;;5.16;95.89;102895.81;5040019;28;20225;-74
2022/01/18 07:10:40;;;;;;;8.30;5.20;;;;;;;5.17;96.01;102889.66;5048430;28;20205;-74
2022/01/18 07:13:08;;;;;;;11.87;6.17;;;;;;;5.17;96.13;102897.59;5042060;28;20229;-74
2022/01/18 07:15:36;;;;;;;11.20;5.90;;;;;;;5.17;96.08;102903.75;5044232;28;20206;-74
2022/01/18 07:18:05;;;;;;;10.17;5.60;;;;;;;5.18;96.08;102902.84;5040634;28;20213;-74
2022/01/18 07:20:32;;;;;;;12.10;5.80;;;;;;;5.18;96.40;102909.91;5049624;28;20209;-74
2022/01/18 07:22:58;;;;;;;14.60;7.00;;;;;;;5.18;96.01;102913.44;5041906;28;20343;-75
2022/01/18 07:25:26;;;;;;;10.27;5.73;;;;;;;5.18;96.07;102917.84;5040622;28;20210;-74
2022/01/18 07:27:53;;;;;;;9.57;5.50;;;;;;;5.17;96.28;102914.31;5042920;28;20241;-74
2022/01/18 07:30:19;;;;;;;10.20;5.13;;;;;;;5.19;96.35;102925.75;5045693;28;20198;-74
2022/01/18 07:32:47;;;;;;;10.73;5.37;;;;;;;5.19;96.34;102920.47;5041442;28;20266;-75
2022/01/18 07:35:14;;;;;;;9.70;4.83;;;;;;;5.20;96.64;102921.31;5046694;28;20308;-73
2022/01/18 07:37:40;;;;;;;12.20;4.43;;;;;;;5.21;96.36;102923.06;5042331;28;20297;-74
2022/01/18 07:40:08;;;;;;;10.50;5.10;;;;;;;5.20;96.36;102924.84;5041225;28;20206;-74
2022/01/18 07:42:34;;;;;;;6.67;4.50;;;;;;;5.22;96.75;102930.09;5039094;28;20229;-75
2022/01/18 07:45:01;;;;;;;10.67;4.00;;;;;;;5.23;96.53;102929.22;5037584;28;20217;-74
2022/01/18 07:47:27;;;;;;;8.93;4.30;;;;;;;5.23;96.76;102923.94;5043385;28;20229;-75
2022/01/18 07:49:55;;;;;;;10.70;4.17;;;;;;;5.25;96.62;102924.81;5038899;28;20687;-74
2022/01/18 07:52:22;;;;;;;10.30;4.63;;;;;;;5.26;96.60;102923.06;5041743;28;20704;-74
2022/01/18 07:54:51;;;;;;;8.23;4.20;;;;;;;5.26;96.75;102934.50;5031637;28;20210;-74
2022/01/18 07:57:19;;;;;;;9.20;4.47;;;;;;;5.27;96.62;102927.47;5043451;28;20198;-75
2022/01/18 07:59:46;;;;;;;9.63;4.40;;;;;;;5.27;96.52;102925.69;5044267;28;20225;-75
2022/01/18 08:02:12;;;;;;;6.80;4.37;;;;;;;5.28;96.92;102926.56;5041398;28;20222;-74
2022/01/18 08:04:39;;;;;;;9.97;4.20;;;;;;;5.28;96.92;102927.44;5043292;28;20591;-75
2022/01/18 08:07:07;;;;;;;7.57;4.23;;;;;;;5.30;96.86;102928.31;5047682;28;20216;-74
2022/01/18 08:09:33;;;;;;;7.50;4.30;;;;;;;5.32;96.91;102931.84;5046251;28;20211;-75
2022/01/18 08:12:00;;;;;;;7.77;4.17;;;;;;;5.33;97.08;102938.88;5044688;28;20714;-74
2022/01/18 08:14:29;;;;;;;9.17;4.30;;;;;;;5.35;97.10;102945.03;5045235;28;20295;-74
2022/01/18 08:17:01;;;;;;;7.43;4.03;;;;;;;5.37;96.65;102942.41;5035505;28;20655;-74
2022/01/18 08:19:28;;;;;;;9.40;4.23;;;;;;;5.37;97.22;102945.91;5041632;28;21576;-74
2022/01/18 08:21:55;;;;;;;6.77;4.20;;;;;;;5.38;97.10;102952.94;5043246;28;20208;-75
2022/01/18 08:24:23;;;;;;;9.20;5.07;;;;;;;5.39;97.24;102944.13;5044709;28;20205;-75
2022/01/18 08:26:49;;;;;;;10.47;4.93;;;;;;;5.41;97.27;102945.00;5043188;28;20221;-75
2022/01/18 08:29:16;;;;;;;8.13;4.63;;;;;;;5.42;96.85;102945.88;5047170;28;20713;-73
2022/01/18 08:31:43;;;;;;;11.63;4.87;;;;;;;5.43;97.18;102958.19;5047053;28;20289;-74
2022/01/18 08:34:09;;;;;;;8.23;4.87;;;;;;;5.45;97.17;102952.03;5045356;28;20233;-74
2022/01/18 08:36:36;;;;;;;8.97;5.03;;;;;;;5.46;97.27;102944.97;5041656;28;20549;-74
2022/01/18 08:39:04;;;;;;;11.47;5.47;;;;;;;5.47;97.26;102950.25;5037875;28;20209;-74
2022/01/18 08:41:32;;;;;;;12.27;5.80;;;;;;;5.49;97.41;102947.59;5041138;28;20205;-74
2022/01/18 08:43:59;;;;;;;10.33;5.87;;;;;;;5.52;97.38;102947.59;5038011;28;20234;-74
2022/01/18 08:46:26;;;;;;;11.60;6.13;;;;;;;5.53;97.55;102947.59;5043880;28;20204;-74
2022/01/18 08:48:53;;;;;;;12.37;7.10;;;;;;;5.53;97.46;102947.59;5037471;28;20225;-73
2022/01/18 08:51:20;;;;;;;11.93;6.77;;;;;;;5.56;97.34;102944.00;5036525;28;20210;-75
2022/01/18 08:53:48;;;;;;;12.77;7.40;;;;;;;5.56;97.40;102950.19;5037978;28;20296;-75
2022/01/18 08:56:17;;;;;;;15.60;8.70;;;;;;;5.60;97.78;102943.13;5040729;28;20683;-75
2022/01/18 08:58:46;;;;;;;16.00;8.33;;;;;;;5.63;97.72;102951.03;5041162;28;20209;-76
2022/01/18 09:01:13;;;;;;;15.63;8.30;;;;;;;5.66;97.66;102951.03;5041589;28;20202;-75
2022/01/18 09:03:39;;;;;;;16.63;9.47;;;;;;;5.68;97.97;102951.88;5041182;28;20230;-75
2022/01/18 09:06:07;;;;;;;23.30;11.60;;;;;;;5.69;97.94;102950.13;5037937;28;20218;-75
2022/01/18 09:08:36;;;;;;;18.53;10.10;;;;;;;5.71;98.07;102953.63;5039507;28;20725;-75
2022/01/18 09:11:03;;;;;;;15.53;8.30;;;;;;;5.72;97.80;102952.75;5041625;28;20206;-75
2022/01/18 09:13:30;;;;;;;16.90;8.33;;;;;;;5.73;97.76;102962.44;5044389;28;20237;-76
2022/01/18 09:15:58;;;;;;;20.63;10.43;;;;;;;5.75;98.22;102960.63;5040531;28;20210;-75
2022/01/18 09:18:24;;;;;;;20.10;8.90;;;;;;;5.77;98.13;102961.50;5040712;28;20206;-74
2022/01/18 09:20:51;;;;;;;25.00;11.17;;;;;;;5.78;98.06;102963.28;5041247;28;20210;-75
2022/01/18 09:23:18;;;;;;;17.30;8.40;;;;;;;5.81;98.27;102960.63;5043293;28;20278;-76
2022/01/18 09:25:44;;;;;;;17.80;8.20;;;;;;;5.85;97.78;102965.00;5042296;28;20198;-76
2022/01/18 09:28:11;;;;;;;22.23;10.47;;;;;;;5.86;98.33;102969.41;5043522;28;20736;-75
2022/01/18 09:30:38;;;;;;;25.97;13.27;;;;;;;5.90;98.28;102968.53;5040610;28;20206;-75
2022/01/18 09:33:07;;;;;;;23.73;10.93;;;;;;;5.96;98.76;102976.41;5040858;28;20221;-74
2022/01/18 09:35:34;;;;;;;32.47;12.53;;;;;;;6.00;98.58;102978.13;5042521;28;20205;-73
2022/01/18 09:38:01;;;;;;;22.63;9.50;;;;;;;6.05;98.45;102965.78;5043513;28;20215;-75
2022/01/18 09:40:28;;;;;;;24.43;11.70;;;;;;;6.08;99.06;102973.69;5043545;28;20205;-75
2022/01/18 09:42:59;;;;;;;26.37;12.13;;;;;;;6.12;98.73;102978.03;5051024;28;20723;-75
2022/01/18 09:45:27;;;;;;;20.33;9.70;;;;;;;6.15;98.63;102977.13;5048376;28;20224;-75
2022/01/18 09:47:56;;;;;;;19.00;8.70;;;;;;;6.18;99.14;102978.00;5042416;28;20629;-76
2022/01/18 09:50:29;;;;;;;19.70;8.33;;;;;;;6.21;98.92;102975.34;5042681;28;20743;-75
2022/01/18 09:52:56;;;;;;;23.60;8.17;;;;;;;6.24;98.77;102977.09;5039381;28;20241;-76
2022/01/18 09:55:25;;;;;;;22.57;8.13;;;;;;;6.27;98.76;102980.56;5041235;28;20205;-75
2022/01/18 09:57:52;;;;;;;21.90;8.70;;;;;;;6.30;98.98;102978.78;5041709;28;20244;-76
2022/01/18 10:00:20;;;;;;;16.80;7.70;;;;;;;6.33;99.16;102973.47;5044949;28;20213;-75
2022/01/18 10:02:48;;;;;;;25.83;7.87;;;;;;;6.35;98.67;102979.63;5040026;28;20245;-75
2022/01/18 10:05:21;;;;;;;18.97;8.37;;;;;;;6.37;99.02;102977.84;5044400;28;20206;-76
2022/01/18 10:08:01;;;;;;;23.13;8.60;;;;;;;6.40;98.98;102972.53;5042351;28;20209;-75
2022/01/18 10:10:39;;;;;;;36.10;10.70;;;;;;;6.44;98.65;102974.25;5041781;28;20218;-75
2022/01/18 10:13:06;;;;;;;28.07;9.97;;;;;;;6.47;99.54;102968.91;5045737;28;20245;-75
2022/01/18 10:15:34;;;;;;;22.07;8.83;;;;;;;6.49;98.96;102964.50;5045709;28;20701;-76
2022/01/18 10:18:18;;;;;;;22.33;8.30;;;;;;;6.50;98.58;102968.91;5039972;28;20205;-75
2022/01/18 10:20:52;;;;;;;18.93;8.90;;;;;;;6.49;98.53;102959.19;5049447;28;20213;-74
2022/01/18 10:23:25;;;;;;;24.47;8.33;;;;;;;6.48;98.50;102968.91;5027643;28;20317;-72
2022/01/18 10:25:52;;;;;;;21.43;8.80;;;;;;;6.48;98.07;102968.03;5029925;28;20194;-75
2022/01/18 10:28:29;;;;;;;21.63;7.83;;;;;;;6.50;97.94;102961.81;5034060;28;20222;-74
2022/01/18 10:30:57;;;;;;;20.67;8.60;;;;;;;6.52;97.93;102967.09;5027865;28;20474;-72
2022/01/18 10:33:57;;;;;;;18.63;8.07;;;;;;;6.54;98.43;102971.50;5032968;28;20253;-75
2022/01/18 10:36:27;;;;;;;24.70;9.13;;;;;;;6.58;98.43;102967.06;5037792;28;20763;-73
2022/01/18 10:39:02;;;;;;;23.43;8.03;;;;;;;6.63;97.75;102973.16;5043240;28;20252;-73
2022/01/18 10:41:31;;;;;;;24.03;7.80;;;;;;;6.67;97.87;102968.72;5045802;28;20338;-75
2022/01/18 10:45:06;;;;;;;24.87;8.63;;;;;;;6.71;97.80;102968.69;5040158;28;20218;-73
2022/01/18 10:47:34;;;;;;;21.20;7.67;;;;;;;6.74;98.08;102962.47;4938792;28;20217;-73
2022/01/18 10:53:12;;;;;;;18.97;7.40;;;;;;;6.75;97.50;102957.16;5037729;28;20237;-74
2022/01/18 10:55:40;;;;;;;27.83;8.37;;;;;;;6.76;97.36;102953.63;5037691;28;20209;-74
2022/01/18 10:58:11;;;;;;;18.77;7.87;;;;;;;6.80;97.42;102957.13;5040548;28;20582;-74
2022/01/18 11:00:39;;;;;;;21.33;8.00;;;;;;;6.83;97.03;102951.78;5041638;28;20581;-74
2022/01/18 11:03:06;;;;;;;22.30;8.30;;;;;;;6.86;97.76;102951.75;5037905;28;20236;-74
2022/01/18 11:05:35;;;;;;;19.53;7.93;;;;;;;6.91;97.25;102944.63;5039019;28;20204;-74
2022/01/18 11:08:04;;;;;;;21.63;6.97;;;;;;;6.95;97.40;102951.66;5043910;28;20203;-74
2022/01/18 11:10:42;;;;;;;17.53;6.40;;;;;;;6.96;97.29;102946.34;5033035;28;20252;-74
2022/01/18 11:13:11;;;;;;;18.10;6.73;;;;;;;6.96;96.52;102941.03;5036591;28;20230;-75
2022/01/18 11:15:41;;;;;;;22.07;7.60;;;;;;;6.94;96.48;102939.31;5040572;28;20213;-74
2022/01/18 11:18:15;;;;;;;17.73;6.53;;;;;;;6.94;96.03;102939.31;5042397;28;20603;-74
2022/01/18 11:20:45;;;;;;;16.07;6.77;;;;;;;6.94;96.18;102941.94;5045790;28;20604;-74
2022/01/18 11:23:13;;;;;;;22.77;7.67;;;;;;;6.96;96.45;102943.69;5041269;28;20230;-75
2022/01/18 11:25:40;;;;;;;25.77;7.47;;;;;;;6.99;96.39;102942.75;5041966;28;20741;-74
2022/01/18 11:28:10;;;;;;;16.23;6.90;;;;;;;7.02;96.16;102937.41;5041026;28;20369;-74
2022/01/18 11:30:39;;;;;;;20.40;6.87;;;;;;;7.05;96.50;102939.16;5040392;28;20212;-74
2022/01/18 11:33:08;;;;;;;16.73;7.07;;;;;;;7.04;95.93;102934.75;5047778;28;20230;-74
2022/01/18 11:35:44;;;;;;;17.63;6.20;;;;;;;7.03;95.64;102927.69;5039753;28;20209;-74
2022/01/18 11:38:20;;;;;;;18.70;6.83;;;;;;;7.03;95.86;102925.06;5040136;28;20669;-73
2022/01/18 11:40:48;;;;;;;18.10;6.83;;;;;;;7.01;95.19;102929.50;5038426;28;20206;-73
2022/01/18 11:43:34;;;;;;;22.13;7.47;;;;;;;7.03;95.38;102927.69;5041779;28;20232;-75
2022/01/18 11:46:01;;;;;;;19.40;6.27;;;;;;;7.04;95.51;102926.81;5042859;28;20205;-73
2022/01/18 11:48:27;;;;;;;18.50;7.67;;;;;;;7.03;94.67;102911.81;5040002;28;20202;-73
2022/01/18 11:51:02;;;;;;;16.23;6.90;;;;;;;7.03;94.32;102904.72;5033628;28;20198;-72
2022/01/18 11:53:44;;;;;;;22.17;7.10;;;;;;;7.01;94.52;102903.88;5035917;28;20733;-73
2022/01/18 11:56:16;;;;;;;25.53;7.27;;;;;;;7.02;94.35;102902.09;5036861;28;20530;-73
2022/01/18 11:59:14;;;;;;;23.17;7.30;;;;;;;7.00;94.50;102909.19;5034740;28;20217;-72
2022/01/18 12:01:49;;;;;;;19.03;6.73;;;;;;;6.99;94.54;102915.41;5038183;28;20701;-72
2022/01/18 12:05:04;;;;;;;15.73;7.10;;;;;;;6.97;93.39;102924.25;5040438;28;20226;-72
2022/01/18 12:07:56;;;;;;;17.03;6.60;;;;;;;6.95;93.94;102925.16;5039710;28;20243;-72
2022/01/18 12:10:43;;;;;;;22.63;6.97;;;;;;;6.94;93.66;102929.59;5039714;28;20236;-73
2022/01/18 12:13:13;;;;;;;16.10;7.07;;;;;;;6.95;93.81;102931.34;5043841;28;20244;-72
2022/01/18 12:15:47;;;;;;;18.13;7.33;;;;;;;6.97;93.08;102929.56;5042277;28;20205;-72
2022/01/18 12:18:15;;;;;;;25.13;7.80;;;;;;;6.98;93.32;102925.13;5039550;28;20241;-71
2022/01/18 12:20:46;;;;;;;20.17;6.43;;;;;;;6.97;93.50;102934.84;5044737;28;20206;-72
2022/01/18 12:23:17;;;;;;;19.90;7.80;;;;;;;6.97;93.56;102934.84;5038354;28;20255;-73
2022/01/18 12:25:56;;;;;;;23.40;7.70;;;;;;;6.99;93.12;102941.91;5038286;28;20198;-73